createdAt,value
2018-06-16T00:00:07.030Z,13.90
2018-06-16T00:02:35.529Z,13.90
2018-06-16T00:05:04.089Z,13.90
2018-06-16T00:07:32.619Z,13.90
2018-06-16T00:10:01.118Z,13.90
2018-06-16T00:12:29.661Z,13.90
2018-06-16T00:14:58.178Z,13.80
2018-06-16T00:17:26.923Z,13.80
2018-06-16T00:19:55.567Z,13.80
2018-06-16T00:22:24.052Z,13.80
2018-06-16T00:24:56.738Z,13.80
2018-06-16T00:27:25.250Z,13.80
2018-06-16T00:29:53.967Z,13.80
2018-06-16T00:32:22.962Z,13.80
2018-06-16T00:34:52.215Z,13.90
2018-06-16T00:37:21.698Z,13.90
2018-06-16T00:39:50.198Z,13.90
2018-06-16T00:42:18.750Z,13.80
2018-06-16T00:44:47.613Z,13.70
2018-06-16T00:47:16.117Z,13.70
2018-06-16T00:49:44.661Z,13.50
2018-06-16T00:52:13.151Z,13.40
2018-06-16T00:54:41.659Z,13.30
2018-06-16T00:57:21.233Z,13.20
2018-06-16T00:59:49.726Z,13.20
2018-06-16T01:02:18.196Z,13.30
2018-06-16T01:04:46.702Z,13.40
2018-06-16T01:07:15.199Z,13.60
2018-06-16T01:09:43.733Z,13.60
2018-06-16T01:12:12.230Z,13.60
2018-06-16T01:14:40.767Z,13.50
2018-06-16T01:17:09.286Z,13.50
2018-06-16T01:19:37.817Z,13.40
2018-06-16T01:22:06.329Z,13.50
2018-06-16T01:24:34.826Z,13.50
2018-06-16T01:27:03.357Z,13.50
2018-06-16T01:29:31.851Z,13.50
2018-06-16T01:32:00.385Z,13.40
2018-06-16T01:34:28.907Z,13.40
2018-06-16T01:36:57.878Z,13.40
2018-06-16T01:39:26.439Z,13.30
2018-06-16T01:41:55.000Z,13.30
2018-06-16T01:44:23.505Z,13.30
2018-06-16T01:46:51.979Z,13.30
2018-06-16T01:49:20.490Z,13.20
2018-06-16T01:51:48.984Z,13.10
2018-06-16T01:54:17.482Z,12.90
2018-06-16T01:56:46.166Z,12.80
2018-06-16T01:59:14.961Z,12.80
2018-06-16T02:01:43.886Z,12.70
2018-06-16T02:04:12.710Z,12.80
2018-06-16T02:06:41.841Z,12.70
2018-06-16T02:09:11.884Z,12.70
2018-06-16T02:11:40.670Z,12.70
2018-06-16T02:14:09.957Z,12.70
2018-06-16T02:16:38.488Z,12.70
2018-06-16T02:19:07.249Z,12.60
2018-06-16T02:21:35.817Z,12.60
2018-06-16T02:24:04.353Z,12.60
2018-06-16T02:26:32.871Z,12.60
2018-06-16T02:29:01.351Z,12.50
2018-06-16T02:31:29.875Z,12.50
2018-06-16T02:33:58.388Z,12.50
2018-06-16T02:36:26.879Z,12.60
2018-06-16T02:38:55.798Z,12.70
2018-06-16T02:41:24.298Z,12.70
2018-06-16T02:43:52.836Z,12.70
2018-06-16T02:48:49.642Z,12.60
2018-06-16T02:51:18.178Z,12.60
2018-06-16T02:53:46.674Z,12.60
2018-06-16T02:56:15.224Z,12.60
2018-06-16T02:58:43.714Z,12.60
2018-06-16T03:01:12.242Z,12.60
2018-06-16T03:03:40.748Z,12.50
2018-06-16T03:06:09.291Z,12.40
2018-06-16T03:08:37.814Z,12.40
2018-06-16T03:11:06.305Z,12.40
2018-06-16T03:13:34.814Z,12.30
2018-06-16T03:16:03.353Z,12.30
2018-06-16T03:18:32.099Z,12.30
2018-06-16T03:21:00.599Z,12.30
2018-06-16T03:23:29.129Z,12.20
2018-06-16T03:25:57.606Z,12.30
2018-06-16T03:28:26.132Z,12.30
2018-06-16T03:33:22.833Z,12.20
2018-06-16T03:35:51.361Z,12.20
2018-06-16T03:38:19.879Z,12.20
2018-06-16T03:40:48.431Z,12.20
2018-06-16T03:43:16.894Z,12.20
2018-06-16T03:45:45.382Z,12.20
2018-06-16T03:50:42.220Z,12.20
2018-06-16T03:53:10.756Z,12.20
2018-06-16T03:55:39.314Z,12.30
2018-06-16T03:58:07.879Z,12.30
2018-06-16T04:00:36.389Z,12.30
2018-06-16T04:03:04.957Z,12.30
2018-06-16T04:05:33.502Z,12.30
2018-06-16T04:08:01.998Z,12.30
2018-06-16T04:10:30.506Z,12.30
2018-06-16T04:12:59.012Z,12.30
2018-06-16T04:15:27.542Z,12.40
2018-06-16T04:17:56.192Z,12.40
2018-06-16T04:20:24.674Z,12.40
2018-06-16T04:22:53.217Z,12.50
2018-06-16T04:27:49.876Z,13.00
2018-06-16T04:30:18.386Z,13.80
2018-06-16T04:32:46.918Z,14.50
2018-06-16T04:35:15.466Z,15.30
2018-06-16T04:37:43.994Z,15.90
2018-06-16T04:40:12.561Z,16.70
2018-06-16T04:42:41.098Z,17.30
2018-06-16T04:45:09.564Z,17.50
2018-06-16T04:50:06.404Z,15.90
2018-06-16T04:52:34.929Z,15.10
2018-06-16T04:55:03.419Z,14.60
2018-06-16T04:57:31.993Z,14.50
2018-06-16T05:00:00.482Z,14.40
2018-06-16T05:02:28.973Z,14.40
2018-06-16T05:04:57.491Z,14.50
2018-06-16T05:07:25.994Z,14.60
2018-06-16T05:09:54.543Z,14.80
2018-06-16T05:12:23.068Z,15.00
2018-06-16T05:14:51.594Z,15.20
2018-06-16T05:17:20.095Z,15.40
2018-06-16T05:19:48.624Z,15.60
2018-06-16T05:22:17.119Z,15.80
2018-06-16T05:24:45.623Z,15.90
2018-06-16T05:27:14.133Z,16.30
2018-06-16T05:29:42.802Z,16.70
2018-06-16T05:32:11.314Z,17.40
2018-06-16T05:34:39.866Z,18.30
2018-06-16T05:37:08.374Z,19.40
2018-06-16T05:39:36.885Z,20.50
2018-06-16T05:42:05.404Z,22.10
2018-06-16T05:44:33.897Z,22.90
2018-06-16T05:47:02.446Z,23.90
2018-06-16T05:49:30.995Z,24.40
2018-06-16T05:51:59.480Z,24.70
2018-06-16T05:54:27.991Z,23.60
2018-06-16T05:56:56.446Z,22.90
2018-06-16T05:59:25.221Z,22.90
2018-06-16T06:01:53.705Z,23.70
2018-06-16T06:04:22.220Z,24.60
2018-06-16T06:06:50.773Z,25.20
2018-06-16T06:09:19.242Z,25.20
2018-06-16T06:14:16.014Z,25.80
2018-06-16T06:19:12.763Z,25.00
2018-06-16T06:21:43.843Z,25.00
2018-06-16T06:24:13.274Z,24.50
2018-06-16T06:26:41.778Z,24.50
2018-06-16T06:29:10.310Z,24.40
2018-06-16T06:31:38.794Z,24.50
2018-06-16T06:34:07.330Z,24.40
2018-06-16T06:36:35.838Z,24.60
2018-06-16T06:39:06.716Z,24.70
2018-06-16T06:41:35.256Z,24.80
2018-06-16T06:44:03.769Z,25.20
2018-06-16T06:46:32.344Z,25.50
2018-06-16T06:49:03.853Z,26.00
2018-06-16T06:51:32.387Z,26.50
2018-06-16T06:54:00.902Z,26.80
2018-06-16T06:56:29.402Z,27.10
2018-06-16T06:58:57.960Z,27.90
2018-06-16T07:01:26.501Z,28.20
2018-06-16T07:03:55.067Z,28.60
2018-06-16T07:06:23.550Z,29.30
2018-06-16T07:08:52.115Z,29.90
2018-06-16T07:11:20.653Z,30.10
2018-06-16T07:13:49.173Z,30.30
2018-06-16T07:16:17.741Z,30.60
2018-06-16T07:18:46.300Z,30.80
2018-06-16T07:21:14.827Z,31.30
2018-06-16T07:23:43.403Z,31.30
2018-06-16T07:26:11.934Z,31.90
2018-06-16T07:28:40.467Z,31.90
2018-06-16T07:31:08.962Z,32.20
2018-06-16T07:33:37.525Z,32.00
2018-06-16T07:36:06.065Z,31.60
2018-06-16T07:38:34.679Z,31.80
2018-06-16T07:41:03.358Z,31.90
2018-06-16T07:43:31.923Z,31.70
2018-06-16T07:46:00.429Z,31.80
2018-06-16T07:48:28.941Z,31.30
2018-06-16T07:50:57.515Z,31.40
2018-06-16T07:53:26.019Z,31.70
2018-06-16T07:55:54.595Z,31.30
2018-06-16T07:58:23.117Z,31.00
2018-06-16T08:00:51.645Z,30.30
2018-06-16T08:03:20.186Z,29.70
2018-06-16T08:05:48.685Z,28.70
2018-06-16T08:08:17.214Z,28.80
2018-06-16T08:10:45.706Z,29.00
2018-06-16T08:13:14.242Z,28.00
2018-06-16T08:15:42.755Z,27.70
2018-06-16T08:18:11.268Z,27.90
2018-06-16T08:20:39.758Z,28.30
2018-06-16T08:23:08.289Z,28.10
2018-06-16T08:25:36.856Z,28.10
2018-06-16T08:28:05.417Z,27.90
2018-06-16T08:30:34.027Z,27.80
2018-06-16T08:33:02.538Z,27.60
2018-06-16T08:35:31.191Z,27.40
2018-06-16T08:37:59.750Z,27.40
2018-06-16T08:40:28.313Z,27.50
2018-06-16T08:42:56.845Z,27.50
2018-06-16T08:45:25.536Z,27.20
2018-06-16T08:47:54.045Z,27.00
2018-06-16T08:50:22.644Z,27.20
2018-06-16T08:52:51.462Z,27.30
2018-06-16T08:55:20.033Z,27.60
2018-06-16T08:57:48.517Z,27.00
2018-06-16T09:00:17.083Z,27.30
2018-06-16T09:02:45.657Z,27.40
2018-06-16T09:05:14.190Z,27.60
2018-06-16T09:07:57.470Z,27.40
2018-06-16T09:10:25.971Z,27.40
2018-06-16T09:12:54.487Z,27.20
2018-06-16T09:15:22.994Z,27.30
2018-06-16T09:17:51.503Z,27.60
2018-06-16T09:20:20.022Z,27.60
2018-06-16T09:22:48.557Z,27.80
2018-06-16T09:25:17.152Z,28.00
2018-06-16T09:27:45.663Z,28.00
2018-06-16T09:30:14.545Z,27.60
2018-06-16T09:32:43.163Z,27.60
2018-06-16T09:35:11.704Z,27.60
2018-06-16T09:37:40.282Z,27.90
2018-06-16T09:40:08.965Z,27.80
2018-06-16T09:42:37.557Z,27.70
2018-06-16T09:45:06.255Z,27.70
2018-06-16T09:47:34.794Z,27.90
2018-06-16T09:50:03.365Z,27.90
2018-06-16T09:55:00.050Z,28.30
2018-06-16T09:57:28.827Z,28.50
2018-06-16T09:59:57.439Z,28.70
2018-06-16T10:02:25.974Z,28.60
2018-06-16T10:04:54.574Z,28.60
2018-06-16T10:07:23.179Z,28.60
2018-06-16T10:09:51.825Z,28.40
2018-06-16T10:12:20.371Z,28.60
2018-06-16T10:14:48.944Z,28.80
2018-06-16T10:17:17.726Z,28.50
2018-06-16T10:19:46.238Z,28.20
2018-06-16T10:22:14.742Z,28.00
2018-06-16T10:24:43.291Z,27.90
2018-06-16T10:27:11.975Z,27.70
2018-06-16T10:29:40.569Z,27.80
2018-06-16T10:32:09.119Z,27.80
2018-06-16T10:34:37.621Z,27.90
2018-06-16T10:37:06.138Z,28.20
2018-06-16T10:39:34.641Z,28.60
2018-06-16T10:44:31.388Z,28.80
2018-06-16T10:49:28.131Z,28.60
2018-06-16T10:51:56.628Z,28.80
2018-06-16T10:54:25.159Z,29.00
2018-06-16T10:56:53.654Z,29.20
2018-06-16T10:59:22.182Z,29.50
2018-06-16T11:01:50.748Z,29.20
2018-06-16T11:04:19.299Z,29.30
2018-06-16T11:06:47.814Z,29.80
2018-06-16T11:09:16.327Z,29.90
2018-06-16T11:11:45.058Z,29.40
2018-06-16T11:14:13.595Z,29.30
2018-06-16T11:16:42.166Z,29.10
2018-06-16T11:21:39.617Z,28.40
2018-06-16T11:24:08.126Z,28.10
2018-06-16T11:26:36.629Z,28.10
2018-06-16T11:29:05.333Z,28.20
2018-06-16T11:31:33.972Z,28.40
2018-06-16T11:34:03.095Z,28.60
2018-06-16T11:36:32.115Z,29.00
2018-06-16T11:39:00.806Z,29.60
2018-06-16T11:41:29.638Z,29.90
2018-06-16T11:43:58.275Z,30.10
2018-06-16T11:46:26.814Z,30.50
2018-06-16T11:48:55.301Z,30.50
2018-06-16T11:51:23.830Z,30.70
2018-06-16T11:53:52.318Z,30.50
2018-06-16T11:56:20.987Z,30.30
2018-06-16T11:58:49.474Z,29.90
2018-06-16T12:01:18.037Z,29.50
2018-06-16T12:03:46.530Z,29.00
2018-06-16T12:06:15.014Z,28.50
2018-06-16T12:08:45.650Z,28.20
2018-06-16T12:11:14.122Z,28.10
2018-06-16T12:13:42.733Z,28.00
2018-06-16T12:16:11.251Z,28.20
2018-06-16T12:18:39.809Z,28.20
2018-06-16T12:21:08.322Z,28.10
2018-06-16T12:23:36.841Z,28.00
2018-06-16T12:26:05.414Z,28.00
2018-06-16T12:28:33.922Z,28.00
2018-06-16T12:31:02.449Z,28.30
2018-06-16T12:33:30.981Z,28.30
2018-06-16T12:35:59.544Z,28.40
2018-06-16T12:38:28.052Z,28.30
2018-06-16T12:40:56.573Z,27.90
2018-06-16T12:43:25.826Z,27.80
2018-06-16T12:45:54.361Z,27.90
2018-06-16T12:48:22.871Z,27.80
2018-06-16T12:50:51.411Z,27.80
2018-06-16T12:53:19.890Z,28.00
2018-06-16T12:55:48.361Z,28.40
2018-06-16T12:58:16.942Z,28.80
2018-06-16T13:00:45.471Z,28.90
2018-06-16T13:03:13.974Z,28.90
2018-06-16T13:05:42.486Z,28.80
2018-06-16T13:08:10.990Z,28.90
2018-06-16T13:10:39.525Z,29.00
2018-06-16T13:13:08.034Z,28.90
2018-06-16T13:15:36.594Z,29.00
2018-06-16T13:18:05.644Z,29.30
2018-06-16T13:20:34.347Z,29.60
2018-06-16T13:23:02.916Z,29.60
2018-06-16T13:25:31.433Z,29.70
2018-06-16T13:27:59.954Z,29.70
2018-06-16T13:30:28.637Z,29.50
2018-06-16T13:32:57.826Z,29.30
2018-06-16T13:35:30.448Z,28.90
2018-06-16T13:38:00.208Z,29.10
2018-06-16T13:40:30.119Z,29.30
2018-06-16T13:42:58.699Z,29.40
2018-06-16T13:45:27.274Z,29.50
2018-06-16T13:47:55.837Z,29.20
2018-06-16T13:50:24.475Z,29.00
2018-06-16T13:52:53.042Z,28.90
2018-06-16T13:55:21.582Z,29.10
2018-06-16T13:57:50.090Z,29.20
2018-06-16T14:00:18.605Z,29.20
2018-06-16T14:02:47.613Z,29.40
2018-06-16T14:05:16.094Z,29.70
2018-06-16T14:07:44.610Z,29.90
2018-06-16T14:10:13.141Z,29.80
2018-06-16T14:12:41.649Z,29.90
2018-06-16T14:15:10.142Z,30.00
2018-06-16T14:17:38.706Z,30.00
2018-06-16T14:20:08.118Z,29.80
2018-06-16T14:22:36.748Z,29.70
2018-06-16T14:25:05.318Z,29.70
2018-06-16T14:27:33.969Z,29.80
2018-06-16T14:30:03.007Z,29.60
2018-06-16T14:32:31.605Z,29.60
2018-06-16T14:35:00.105Z,29.60
2018-06-16T14:37:28.666Z,29.50
2018-06-16T14:39:57.177Z,29.30
2018-06-16T14:42:25.686Z,29.30
2018-06-16T14:44:54.201Z,29.30
2018-06-16T14:47:22.769Z,29.40
2018-06-16T14:50:02.317Z,29.20
2018-06-16T14:52:47.125Z,29.30
2018-06-16T14:55:15.647Z,29.40
2018-06-16T14:57:44.392Z,29.40
2018-06-16T15:02:43.750Z,29.40
2018-06-16T15:05:13.355Z,29.30
2018-06-16T15:07:42.850Z,29.20
2018-06-16T15:10:11.745Z,29.00
2018-06-16T15:12:40.357Z,28.90
2018-06-16T15:15:08.894Z,28.90
2018-06-16T15:17:37.477Z,29.00
2018-06-16T15:20:06.025Z,29.00
2018-06-16T15:22:34.555Z,28.90
2018-06-16T15:25:07.455Z,28.80
2018-06-16T15:27:47.994Z,28.80
2018-06-16T15:30:22.722Z,28.80
2018-06-16T15:32:59.368Z,28.80
2018-06-16T15:35:35.067Z,28.80
2018-06-16T15:38:07.926Z,28.90
2018-06-16T15:40:44.837Z,28.50
2018-06-16T15:43:13.834Z,28.60
2018-06-16T15:45:42.999Z,28.60
2018-06-16T15:48:11.497Z,28.90
2018-06-16T15:50:40.521Z,29.10
2018-06-16T15:53:09.053Z,29.30
2018-06-16T15:55:37.689Z,29.00
2018-06-16T15:58:06.353Z,29.20
2018-06-16T16:00:34.920Z,29.40
2018-06-16T16:03:03.487Z,29.50
2018-06-16T16:05:32.014Z,29.60
2018-06-16T16:08:00.544Z,29.30
2018-06-16T16:10:29.046Z,29.20
2018-06-16T16:12:57.555Z,28.90
2018-06-16T16:15:26.636Z,28.80
2018-06-16T16:17:55.147Z,28.80
2018-06-16T16:20:23.728Z,28.80
2018-06-16T16:22:52.226Z,28.60
2018-06-16T16:25:20.771Z,28.40
2018-06-16T16:27:49.273Z,28.40
2018-06-16T16:30:17.765Z,28.40
2018-06-16T16:32:46.270Z,28.40
2018-06-16T16:35:14.797Z,28.40
2018-06-16T16:37:43.386Z,28.40
2018-06-16T16:40:11.902Z,28.40
2018-06-16T16:42:40.466Z,28.40
2018-06-16T16:45:08.999Z,28.40
2018-06-16T16:47:37.543Z,28.20
2018-06-16T16:50:06.073Z,28.10
2018-06-16T16:52:35.261Z,28.00
2018-06-16T16:57:31.969Z,27.80
2018-06-16T17:00:00.511Z,27.80
2018-06-16T17:02:29.083Z,27.70
2018-06-16T17:04:58.704Z,27.60
2018-06-16T17:07:27.779Z,27.60
2018-06-16T17:09:57.013Z,27.60
2018-06-16T17:12:26.155Z,27.50
2018-06-16T17:14:55.390Z,27.40
2018-06-16T17:17:24.505Z,27.30
2018-06-16T17:19:53.312Z,27.10
2018-06-16T17:22:22.528Z,27.00
2018-06-16T17:24:54.325Z,27.00
2018-06-16T17:27:23.251Z,27.00
2018-06-16T17:29:53.269Z,26.90
2018-06-16T17:32:22.390Z,26.90
2018-06-16T17:34:51.307Z,26.90
2018-06-16T17:37:19.822Z,26.90
2018-06-16T17:39:48.343Z,26.80
2018-06-16T17:42:16.829Z,26.70
2018-06-16T17:44:45.362Z,26.60
2018-06-16T17:47:13.845Z,26.50
2018-06-16T17:49:42.376Z,26.40
2018-06-16T17:52:10.912Z,26.20
2018-06-16T17:54:39.398Z,26.20
2018-06-16T17:57:07.925Z,26.10
2018-06-16T17:59:36.545Z,26.10
2018-06-16T18:02:05.725Z,26.00
2018-06-16T18:04:34.286Z,25.90
2018-06-16T18:07:02.776Z,25.90
2018-06-16T18:09:31.225Z,25.70
2018-06-16T18:11:59.692Z,25.60
2018-06-16T18:14:28.888Z,25.40
2018-06-16T18:16:57.407Z,25.30
2018-06-16T18:19:25.895Z,25.10
2018-06-16T18:21:54.408Z,25.00
2018-06-16T18:26:51.063Z,24.90
2018-06-16T18:29:19.593Z,24.80
2018-06-16T18:31:48.041Z,24.60
2018-06-16T18:34:16.638Z,24.50
2018-06-16T18:36:45.162Z,24.30
2018-06-16T18:39:13.697Z,24.10
2018-06-16T18:41:42.192Z,23.90
2018-06-16T18:44:10.765Z,23.80
2018-06-16T18:46:39.266Z,23.80
2018-06-16T18:49:07.805Z,23.70
2018-06-16T18:51:36.326Z,23.50
2018-06-16T18:54:04.891Z,23.30
2018-06-16T18:56:33.413Z,23.00
2018-06-16T18:59:02.102Z,22.80
2018-06-16T19:01:30.622Z,22.50
2018-06-16T19:06:27.349Z,22.40
2018-06-16T19:08:55.863Z,22.20
2018-06-16T19:11:24.393Z,22.20
2018-06-16T19:13:52.886Z,22.10
2018-06-16T19:16:21.378Z,22.00
2018-06-16T19:18:49.907Z,21.90
2018-06-16T19:21:18.438Z,21.90
2018-06-16T19:23:47.028Z,21.80
2018-06-16T19:26:15.550Z,21.70
2018-06-16T19:28:44.427Z,21.80
2018-06-16T19:33:41.388Z,21.60
2018-06-16T19:36:10.116Z,21.30
2018-06-16T19:38:38.621Z,21.20
2018-06-16T19:41:07.181Z,21.10
2018-06-16T19:43:35.764Z,21.00
2018-06-16T19:46:04.325Z,20.90
2018-06-16T19:48:33.243Z,20.90
2018-06-16T19:51:02.449Z,20.80
2018-06-16T19:53:31.357Z,20.70
2018-06-16T19:55:59.895Z,20.40
2018-06-16T19:58:28.769Z,20.40
2018-06-16T20:00:57.298Z,20.30
2018-06-16T20:03:25.846Z,20.20
2018-06-16T20:05:55.212Z,20.10
2018-06-16T20:10:51.913Z,19.90
2018-06-16T20:13:22.001Z,19.90
2018-06-16T20:15:50.797Z,19.90
2018-06-16T20:18:19.254Z,19.90
2018-06-16T20:20:48.081Z,19.80
2018-06-16T20:23:16.716Z,19.80
2018-06-16T20:25:45.202Z,19.70
2018-06-16T20:28:14.200Z,19.60
2018-06-16T20:30:42.823Z,19.40
2018-06-16T20:33:11.707Z,19.30
2018-06-16T20:35:40.230Z,19.20
2018-06-16T20:38:09.041Z,19.00
2018-06-16T20:40:37.601Z,18.90
2018-06-16T20:43:06.367Z,18.80
2018-06-16T20:45:37.439Z,18.80
2018-06-16T20:48:07.634Z,18.80
2018-06-16T20:50:36.522Z,18.70
2018-06-16T20:53:10.618Z,18.80
2018-06-16T20:55:39.338Z,18.90
2018-06-16T20:58:09.049Z,19.00
2018-06-16T21:00:38.072Z,19.10
2018-06-16T21:03:07.206Z,19.10
2018-06-16T21:05:36.153Z,19.10
2018-06-16T21:08:04.924Z,19.10
2018-06-16T21:10:34.588Z,19.20
2018-06-16T21:13:03.217Z,19.30
2018-06-16T21:15:31.768Z,19.30
2018-06-16T21:18:00.222Z,19.30
2018-06-16T21:20:29.252Z,19.30
2018-06-16T21:22:57.734Z,19.20
2018-06-16T21:25:27.258Z,19.20
2018-06-16T21:27:55.745Z,19.20
2018-06-16T21:30:24.709Z,19.20
2018-06-16T21:32:53.711Z,19.20
2018-06-16T21:35:22.198Z,19.10
2018-06-16T21:37:51.603Z,19.00
2018-06-16T21:40:21.084Z,18.90
2018-06-16T21:42:49.658Z,18.80
2018-06-16T21:45:18.221Z,18.70
2018-06-16T21:47:47.626Z,18.60
2018-06-16T21:50:16.122Z,18.50
2018-06-16T21:52:44.701Z,18.60
2018-06-16T21:55:13.598Z,18.60
2018-06-16T21:57:43.883Z,18.40
2018-06-16T22:00:14.982Z,18.30
2018-06-16T22:02:44.644Z,18.20
2018-06-16T22:05:13.212Z,18.20
2018-06-16T22:07:41.718Z,18.10
2018-06-16T22:10:10.951Z,18.10
2018-06-16T22:12:39.586Z,18.20
2018-06-16T22:15:08.571Z,18.20
2018-06-16T22:17:39.029Z,18.20
2018-06-16T22:20:07.591Z,18.20
2018-06-16T22:22:36.150Z,18.20
2018-06-16T22:25:05.001Z,18.10
2018-06-16T22:27:33.843Z,18.10
2018-06-16T22:30:02.391Z,18.10
2018-06-16T22:32:34.594Z,18.00
2018-06-16T22:35:03.118Z,18.00
2018-06-16T22:37:32.511Z,18.00
2018-06-16T22:40:02.103Z,18.00
2018-06-16T22:42:30.609Z,17.90
2018-06-16T22:44:59.748Z,17.60
2018-06-16T22:47:28.259Z,17.50
2018-06-16T22:49:57.790Z,17.30
2018-06-16T22:52:26.883Z,17.30
2018-06-16T22:54:56.642Z,17.30
2018-06-16T22:57:25.207Z,17.30
2018-06-16T22:59:53.739Z,17.20
2018-06-16T23:02:22.259Z,17.20
2018-06-16T23:04:50.972Z,17.30
2018-06-16T23:07:19.862Z,17.30
2018-06-16T23:09:49.271Z,17.40
2018-06-16T23:12:17.813Z,17.40
2018-06-16T23:14:46.321Z,17.50
2018-06-16T23:19:44.503Z,17.50
2018-06-16T23:22:13.029Z,17.40
2018-06-16T23:24:41.563Z,17.50
2018-06-16T23:27:10.097Z,17.50
2018-06-16T23:29:38.655Z,17.50
2018-06-16T23:32:08.062Z,17.50
2018-06-16T23:34:37.079Z,17.60
2018-06-16T23:37:05.680Z,17.60
2018-06-16T23:39:34.181Z,17.60
2018-06-16T23:42:02.750Z,17.60
2018-06-16T23:44:31.242Z,17.60
2018-06-16T23:47:00.016Z,17.70
2018-06-16T23:49:28.546Z,17.70
2018-06-16T23:51:57.047Z,17.70
2018-06-16T23:54:26.274Z,17.70
2018-06-16T23:56:54.764Z,17.60
2018-06-16T23:59:23.296Z,17.50
